Time;durP1;ratioP1;P1;durP2;ratioP2;P2;SDS_P1;SDS_P2;PMS_P1;PMS_P2;Temp;Humidity;BMP_temperature;BMP_pressure;BME280_temperature;BME280_humidity;BME280_pressure;Samples;Min_cycle;Max_cycle;Signal;HPM_P1;HPM_P2
2023/07/09 00:00:27;;;;;;;10.80;6.17;;;22.90;63.60;;;;;;20915268;28;20287;-70
2023/07/09 00:10:29;;;;;;;8.67;5.80;;;22.70;63.70;;;;;;20914378;28;20262;-68
2023/07/09 00:20:31;;;;;;;9.00;5.57;;;22.60;64.60;;;;;;20913919;28;20266;-70
2023/07/09 00:30:33;;;;;;;9.17;5.60;;;22.40;65.50;;;;;;20913281;28;20322;-64
2023/07/09 00:40:35;;;;;;;9.33;6.10;;;22.40;66.30;;;;;;20912863;28;20223;-66
2023/07/09 00:50:41;;;;;;;10.33;5.93;;;22.20;66.80;;;;;;20912318;28;20589;-64
2023/07/09 01:00:56;;;;;;;8.57;5.50;;;22.10;67.70;;;;;;20911836;28;20576;-65
2023/07/09 01:11:01;;;;;;;10.90;5.37;;;21.90;68.60;;;;;;20911615;28;20278;-64
2023/07/09 01:21:15;;;;;;;10.30;5.53;;;21.90;69.40;;;;;;20922534;28;20568;-64
2023/07/09 01:31:17;;;;;;;10.77;5.53;;;21.70;70.40;;;;;;20927471;28;20638;-64
2023/07/09 01:41:19;;;;;;;8.67;5.70;;;21.60;70.40;;;;;;20909200;28;20211;-65
2023/07/09 01:51:22;;;;;;;9.30;5.60;;;21.40;71.50;;;;;;20926027;28;20282;-63
2023/07/09 02:01:25;;;;;;;7.57;5.50;;;21.20;72.10;;;;;;20924166;28;20623;-63
2023/07/09 02:11:27;;;;;;;7.97;6.10;;;21.10;72.80;;;;;;20925369;28;20240;-68
2023/07/09 02:21:29;;;;;;;12.17;5.93;;;21.10;73.30;;;;;;20933612;28;20267;-71
2023/07/09 02:31:33;;;;;;;7.83;5.23;;;20.90;74.70;;;;;;20929052;28;20289;-71
2023/07/09 02:41:36;;;;;;;10.37;6.13;;;20.90;75.40;;;;;;20921791;28;20758;-65
2023/07/09 02:51:38;;;;;;;9.50;5.90;;;20.70;76.20;;;;;;20921158;28;20775;-64
2023/07/09 03:01:39;;;;;;;8.00;5.90;;;20.70;77.30;;;;;;20919929;28;20212;-63
2023/07/09 03:11:42;;;;;;;10.00;6.07;;;20.60;77.80;;;;;;20919306;28;20258;-70
2023/07/09 03:21:44;;;;;;;10.23;5.97;;;20.50;78.70;;;;;;20918910;28;20269;-69
2023/07/09 03:31:45;;;;;;;9.47;6.07;;;20.40;79.70;;;;;;20899924;28;20713;-70
2023/07/09 03:41:47;;;;;;;10.10;5.80;;;20.30;80.20;;;;;;20916391;28;20204;-64
2023/07/09 03:51:49;;;;;;;9.63;5.83;;;20.30;81.10;;;;;;20916342;28;20291;-65
2023/07/09 04:01:51;;;;;;;10.97;6.10;;;20.30;81.70;;;;;;20915399;28;20249;-63
2023/07/09 04:11:53;;;;;;;12.03;5.77;;;20.30;82.20;;;;;;20914397;28;20312;-64
2023/07/09 04:21:55;;;;;;;7.53;5.63;;;20.30;82.50;;;;;;20914456;28;20730;-62
2023/07/09 04:31:56;;;;;;;10.30;5.93;;;20.40;83.50;;;;;;20913137;28;20290;-63
2023/07/09 04:41:58;;;;;;;9.00;5.93;;;20.50;83.50;;;;;;20912649;28;20218;-63
2023/07/09 04:52:00;;;;;;;8.00;6.00;;;20.70;83.70;;;;;;20911740;28;20244;-64
2023/07/09 05:02:03;;;;;;;10.70;6.43;;;20.80;83.90;;;;;;20912030;28;20294;-68
2023/07/09 05:12:06;;;;;;;8.57;5.83;;;21.10;83.50;;;;;;20911379;28;20247;-70
2023/07/09 05:22:08;;;;;;;8.87;6.30;;;21.10;84.10;;;;;;20911605;28;20207;-69
2023/07/09 05:32:10;;;;;;;11.13;6.20;;;21.30;83.10;;;;;;20911019;28;20275;-63
2023/07/09 05:42:11;;;;;;;7.97;6.50;;;21.50;83.30;;;;;;20910573;28;20212;-64
2023/07/09 05:52:13;;;;;;;16.83;6.93;;;21.90;82.40;;;;;;20909922;28;20227;-63
2023/07/09 06:02:18;;;;;;;13.00;6.57;;;22.10;81.90;;;;;;20912387;28;20290;-63
2023/07/09 06:12:21;;;;;;;10.27;6.43;;;22.40;81.00;;;;;;20923663;28;20235;-64
2023/07/09 06:22:22;;;;;;;10.63;6.43;;;22.60;80.20;;;;;;20923376;28;20302;-63
2023/07/09 06:32:24;;;;;;;8.97;6.93;;;22.90;79.70;;;;;;20922282;28;20239;-63
2023/07/09 06:42:26;;;;;;;13.47;10.13;;;23.20;78.30;;;;;;20921610;28;20686;-64
2023/07/09 06:52:27;;;;;;;11.30;6.80;;;23.40;76.30;;;;;;20921333;28;20234;-69
2023/07/09 07:02:32;;;;;;;8.27;6.53;;;23.70;74.50;;;;;;20919649;28;20204;-68
2023/07/09 07:12:43;;;;;;;8.87;6.60;;;23.90;72.40;;;;;;20917765;28;20640;-69
2023/07/09 07:22:45;;;;;;;10.40;7.30;;;24.30;71.30;;;;;;20918202;28;20294;-69
2023/07/09 07:32:48;;;;;;;7.90;5.87;;;24.70;70.40;;;;;;20920153;28;20232;-70
2023/07/09 07:42:50;;;;;;;10.10;6.40;;;25.00;68.70;;;;;;20917957;28;20200;-64
2023/07/09 07:52:52;;;;;;;10.57;6.20;;;25.30;67.70;;;;;;20898493;28;20232;-68
2023/07/09 08:02:54;;;;;;;8.20;6.17;;;25.50;66.90;;;;;;20914310;28;20243;-66
2023/07/09 08:12:57;;;;;;;8.17;5.80;;;25.80;66.20;;;;;;20914200;28;20235;-65
2023/07/09 08:22:59;;;;;;;7.10;5.90;;;26.00;65.40;;;;;;20913953;28;20294;-62
2023/07/09 08:33:01;;;;;;;8.87;7.00;;;26.20;64.60;;;;;;20911727;28;20365;-70
2023/07/09 08:43:14;;;;;;;9.20;6.60;;;26.40;63.80;;;;;;20911878;28;20212;-60
2023/07/09 08:53:33;;;;;;;16.07;6.30;;;26.60;63.10;;;;;;20843871;28;20318;-63
2023/07/09 09:03:46;;;;;;;15.93;6.55;;;26.70;62.40;;;;;;20911803;28;20587;-63
2023/07/09 09:13:54;;;;;;;19.60;7.30;;;26.90;61.50;;;;;;20911356;28;20234;-63
2023/07/09 09:24:01;;;;;;;6.72;5.10;;;27.20;60.30;;;;;;20911555;28;20216;-65
2023/07/09 09:34:05;;;;;;;9.45;6.40;;;27.50;58.90;;;;;;20910665;28;20267;-68
2023/07/09 09:44:19;;;;;;;9.98;6.68;;;27.90;57.40;;;;;;20924267;28;20295;-63
2023/07/09 09:54:26;;;;;;;12.02;8.45;;;28.30;55.90;;;;;;20925500;28;20311;-70
2023/07/09 10:04:28;;;;;;;13.82;8.35;;;28.60;55.10;;;;;;20924071;28;20239;-73
2023/07/09 10:14:58;;;;;;;6.70;5.03;;;28.80;54.30;;;;;;20925284;28;20242;-72
2023/07/09 10:25:25;;;;;;;9.32;5.53;;;29.10;53.40;;;;;;20922600;28;20235;-71
2023/07/09 10:35:40;;;;;;;11.13;4.07;;;29.40;52.50;;;;;;20920707;28;20234;-70
2023/07/09 10:45:51;;;;;;;9.10;5.63;;;29.60;51.60;;;;;;20919878;28;20257;-68
2023/07/09 10:55:59;;;;;;;7.63;4.13;;;29.80;50.90;;;;;;20919176;28;20263;-70
2023/07/09 11:06:02;;;;;;;8.68;4.20;;;29.90;50.40;;;;;;20919390;28;20289;-70
2023/07/09 11:16:06;;;;;;;8.82;4.30;;;30.10;49.90;;;;;;20918904;28;20242;-74
2023/07/09 11:26:25;;;;;;;4.35;3.70;;;30.20;49.10;;;;;;20917474;28;20207;-76
2023/07/09 11:36:29;;;;;;;5.35;3.90;;;30.50;48.40;;;;;;20917534;28;20212;-72
2023/07/09 11:46:32;;;;;;;6.60;4.00;;;30.30;48.10;;;;;;20916431;28;20339;-71
2023/07/09 11:56:34;;;;;;;8.27;4.05;;;30.60;47.80;;;;;;20913238;28;20210;-70
2023/07/09 12:06:39;;;;;;;9.70;3.80;;;31.00;46.80;;;;;;20912823;28;20246;-71
2023/07/09 12:16:46;;;;;;;5.85;3.55;;;31.20;46.30;;;;;;20911702;28;20208;-71
2023/07/09 12:26:53;;;;;;;8.40;5.35;;;31.60;45.20;;;;;;20911296;28;20315;-74
2023/07/09 12:36:56;;;;;;;5.68;3.95;;;32.00;44.20;;;;;;20909287;28;20199;-71
2023/07/09 12:46:58;;;;;;;5.75;4.20;;;32.00;43.80;;;;;;20911227;28;20235;-74
2023/07/09 12:57:03;;;;;;;8.27;4.30;;;32.10;43.10;;;;;;20913092;28;20265;-75
2023/07/09 13:07:29;;;;;;;6.38;3.60;;;32.20;42.70;;;;;;20913947;28;20259;-69
2023/07/09 13:17:42;;;;;;;6.20;3.75;;;32.20;42.80;;;;;;20895740;28;20626;-75
2023/07/09 13:27:45;;;;;;;6.40;3.30;;;32.40;42.20;;;;;;20929454;28;20235;-70
2023/07/09 13:37:47;;;;;;;6.40;3.65;;;32.50;41.60;;;;;;20927094;28;20250;-69
2023/07/09 13:47:52;;;;;;;4.80;3.10;;;32.60;40.70;;;;;;20925963;28;20250;-70
2023/07/09 13:57:54;;;;;;;8.05;4.63;;;32.70;40.20;;;;;;20925398;28;20208;-70
2023/07/09 14:07:56;;;;;;;7.88;3.53;;;32.90;39.80;;;;;;20921959;28;20278;-69
2023/07/09 14:17:58;;;;;;;8.85;4.80;;;33.00;39.50;;;;;;20918989;28;20270;-69
2023/07/09 14:28:00;;;;;;;7.50;5.50;;;33.10;39.20;;;;;;20917692;28;20232;-69
2023/07/09 14:38:06;;;;;;;10.70;3.40;;;35.30;37.10;;;;;;20917565;28;20200;-69
2023/07/09 14:48:13;;;;;;;6.18;3.42;;;34.60;37.20;;;;;;20916655;28;20363;-69
2023/07/09 14:58:17;;;;;;;8.18;3.60;;;34.40;37.00;;;;;;20916193;28;20267;-71
2023/07/09 15:08:22;;;;;;;5.90;3.50;;;33.80;37.00;;;;;;20874009;28;1041627;-70
2023/07/09 15:18:24;;;;;;;6.93;4.63;;;34.00;36.90;;;;;;20919172;28;20208;-69
2023/07/09 15:28:25;;;;;;;5.57;3.70;;;34.40;36.50;;;;;;20918516;28;20235;-69
2023/07/09 15:38:31;;;;;;;5.55;3.38;;;36.10;34.90;;;;;;20917618;28;20301;-69
2023/07/09 15:48:35;;;;;;;8.00;3.40;;;35.00;35.50;;;;;;20917590;28;20407;-70
2023/07/09 15:58:42;;;;;;;9.60;3.42;;;34.30;35.60;;;;;;20916085;28;20223;-73
2023/07/09 16:08:44;;;;;;;9.23;4.47;;;34.10;35.50;;;;;;20915246;28;20323;-69
2023/07/09 16:18:46;;;;;;;6.97;4.20;;;34.30;35.40;;;;;;20914415;28;20711;-70
2023/07/09 16:28:49;;;;;;;10.95;3.70;;;34.40;35.30;;;;;;20913820;28;20274;-70
2023/07/09 16:38:50;;;;;;;8.27;3.65;;;33.90;35.60;;;;;;20913384;28;20287;-70
2023/07/09 16:48:54;;;;;;;6.15;3.78;;;33.50;36.30;;;;;;20912604;28;20286;-69
2023/07/09 16:58:56;;;;;;;7.13;5.13;;;33.20;36.70;;;;;;20912071;28;20559;-72
2023/07/09 17:08:58;;;;;;;10.20;3.88;;;32.90;37.50;;;;;;20911719;28;20243;-69
2023/07/09 17:19:00;;;;;;;9.52;4.97;;;32.70;37.90;;;;;;20911755;28;20243;-69
2023/07/09 17:29:01;;;;;;;6.78;3.72;;;32.60;38.50;;;;;;20911203;28;20274;-73
2023/07/09 17:39:03;;;;;;;8.82;5.88;;;32.50;39.00;;;;;;20910523;28;20215;-74
2023/07/09 17:49:19;;;;;;;14.07;6.93;;;32.60;39.70;;;;;;20910271;28;20246;-70
2023/07/09 17:59:26;;;;;;;10.25;6.63;;;33.10;40.40;;;;;;20914596;28;20726;-67
2023/07/09 18:09:28;;;;;;;6.72;4.72;;;33.50;41.30;;;;;;20924259;28;20684;-67
2023/07/09 18:19:30;;;;;;;12.18;6.20;;;33.00;42.80;;;;;;20923805;28;20243;-69
2023/07/09 18:29:35;;;;;;;8.68;5.10;;;32.20;44.60;;;;;;20920660;28;20235;-69
2023/07/09 18:39:36;;;;;;;11.07;7.10;;;31.60;45.70;;;;;;20921642;28;20212;-70
2023/07/09 18:49:39;;;;;;;11.95;6.95;;;31.10;46.70;;;;;;20922464;28;20285;-67
2023/07/09 18:59:41;;;;;;;17.25;10.90;;;30.80;47.00;;;;;;20986114;28;20243;-69
2023/07/09 19:09:44;;;;;;;17.40;9.90;;;30.50;47.50;;;;;;20915888;28;20274;-69
2023/07/09 19:19:45;;;;;;;6.35;4.13;;;30.20;48.50;;;;;;20917984;28;20645;-69
2023/07/09 19:29:49;;;;;;;10.95;4.78;;;29.90;48.60;;;;;;20917235;28;20248;-69
2023/07/09 19:39:51;;;;;;;8.57;4.65;;;29.70;49.40;;;;;;20895955;28;20610;-69
2023/07/09 19:49:55;;;;;;;7.28;4.35;;;29.50;50.20;;;;;;20914984;28;20362;-71
2023/07/09 19:59:57;;;;;;;8.50;4.45;;;29.20;51.00;;;;;;20913477;28;20258;-69
2023/07/09 20:09:58;;;;;;;9.63;4.90;;;29.00;51.70;;;;;;20913040;28;20301;-69
2023/07/09 20:20:01;;;;;;;9.57;4.70;;;28.80;52.40;;;;;;20912644;28;20204;-67
2023/07/09 20:30:03;;;;;;;7.93;4.50;;;28.60;52.80;;;;;;20911785;28;20231;-68
2023/07/09 20:40:05;;;;;;;8.30;4.80;;;28.50;53.10;;;;;;20911294;28;20259;-68
2023/07/09 20:50:12;;;;;;;8.50;4.40;;;28.30;53.50;;;;;;20906745;28;20232;-69
2023/07/09 21:00:18;;;;;;;9.93;5.13;;;28.10;53.80;;;;;;20886970;28;20273;-69
2023/07/09 21:10:25;;;;;;;9.90;4.80;;;27.90;55.30;;;;;;20900274;28;20248;-69
2023/07/09 21:20:28;;;;;;;8.00;4.40;;;27.90;55.80;;;;;;20904835;28;20266;-69
2023/07/09 21:30:31;;;;;;;8.45;4.88;;;27.80;55.50;;;;;;20903505;28;20590;-71
2023/07/09 21:40:34;;;;;;;11.93;5.77;;;27.60;56.10;;;;;;20918733;28;20573;-69
2023/07/09 21:50:36;;;;;;;8.60;4.60;;;27.30;57.50;;;;;;20922015;28;20806;-68
2023/07/09 22:00:38;;;;;;;7.97;3.93;;;27.10;57.40;;;;;;20924602;28;20223;-69
2023/07/09 22:10:56;;;;;;;11.97;4.77;;;27.00;57.60;;;;;;20924419;28;20240;-68
2023/07/09 22:20:59;;;;;;;9.47;4.60;;;26.70;59.00;;;;;;20925469;28;20656;-68
2023/07/09 22:31:03;;;;;;;9.17;4.80;;;26.50;60.40;;;;;;20923144;28;20642;-69
2023/07/09 22:41:05;;;;;;;11.57;4.80;;;26.30;61.70;;;;;;20904765;28;20600;-68
2023/07/09 22:51:07;;;;;;;12.03;5.17;;;26.10;62.80;;;;;;20921561;28;20327;-68
2023/07/09 23:01:15;;;;;;;7.43;4.50;;;26.00;63.80;;;;;;20920844;28;20242;-69
2023/07/09 23:11:19;;;;;;;10.57;5.00;;;25.80;64.40;;;;;;20919862;28;20239;-69
2023/07/09 23:21:23;;;;;;;7.53;4.67;;;25.60;65.30;;;;;;20919735;28;20659;-67
2023/07/09 23:31:27;;;;;;;7.33;4.70;;;25.40;66.10;;;;;;20918631;28;20224;-68
2023/07/09 23:41:32;;;;;;;7.47;4.77;;;25.20;67.30;;;;;;20917733;28;20684;-67
2023/07/09 23:51:33;;;;;;;10.27;5.27;;;25.10;67.90;;;;;;20917147;28;20323;-68
